createdAt,value
2022-08-07T00:00:44.897Z,94.30
2022-08-07T00:03:40.194Z,94.50
2022-08-07T00:06:51.130Z,94.90
2022-08-07T00:09:59.213Z,95.50
2022-08-07T00:12:57.796Z,95.40
2022-08-07T00:15:51.283Z,95.60
2022-08-07T00:18:39.849Z,95.90
2022-08-07T00:21:56.195Z,96.00
2022-08-07T00:24:38.602Z,96.20
2022-08-07T00:27:27.757Z,96.40
2022-08-07T00:30:36.888Z,96.80
2022-08-07T00:33:28.265Z,96.90
2022-08-07T00:36:16.818Z,97.10
2022-08-07T00:39:05.199Z,97.30
2022-08-07T00:42:02.293Z,97.50
2022-08-07T00:44:54.272Z,97.80
2022-08-07T00:48:09.740Z,98.00
2022-08-07T00:50:53.902Z,98.20
2022-08-07T00:53:50.260Z,98.40
2022-08-07T00:56:38.904Z,98.60
2022-08-07T00:59:35.553Z,98.80
2022-08-07T01:02:28.903Z,99.10
2022-08-07T01:05:20.905Z,99.30
2022-08-07T01:08:12.765Z,99.60
2022-08-07T01:11:23.656Z,99.90
2022-08-07T01:14:09.501Z,99.90
2022-08-07T01:16:57.886Z,99.90
2022-08-07T01:19:54.390Z,99.90
2022-08-07T01:22:58.450Z,99.90
2022-08-07T01:25:56.181Z,99.90
2022-08-07T01:28:45.884Z,99.90
2022-08-07T01:31:42.499Z,99.90
2022-08-07T01:34:34.746Z,99.90
2022-08-07T01:37:22.744Z,99.90
2022-08-07T01:40:15.577Z,99.90
2022-08-07T01:43:04.002Z,99.90
2022-08-07T01:45:54.470Z,99.90
2022-08-07T01:48:46.762Z,99.90
2022-08-07T01:52:01.600Z,99.90
2022-08-07T01:54:47.008Z,99.90
2022-08-07T01:58:01.593Z,99.90
2022-08-07T02:00:51.390Z,99.90
2022-08-07T02:03:57.429Z,99.90
2022-08-07T02:06:46.348Z,99.90
2022-08-07T02:09:53.123Z,99.90
2022-08-07T02:12:50.308Z,99.90
2022-08-07T02:15:41.010Z,99.90
2022-08-07T02:18:31.890Z,99.90
2022-08-07T02:21:20.781Z,99.90
2022-08-07T02:24:09.711Z,99.90
2022-08-07T02:27:00.105Z,99.90
2022-08-07T02:29:54.100Z,99.90
2022-08-07T02:33:08.902Z,99.90
2022-08-07T02:36:28.205Z,99.90
2022-08-07T02:39:16.451Z,99.90
2022-08-07T02:42:10.077Z,99.90
2022-08-07T02:45:57.707Z,99.90
2022-08-07T02:48:15.538Z,99.90
2022-08-07T02:51:14.197Z,99.90
2022-08-07T02:54:17.656Z,99.90
2022-08-07T02:57:06.802Z,99.90
2022-08-07T03:00:01.148Z,99.90
2022-08-07T03:02:55.537Z,99.90
2022-08-07T03:05:45.383Z,99.90
2022-08-07T03:08:34.418Z,99.90
2022-08-07T03:11:25.302Z,99.90
2022-08-07T03:14:16.704Z,99.90
2022-08-07T03:17:08.807Z,99.90
2022-08-07T03:19:58.324Z,99.90
2022-08-07T03:22:50.191Z,99.90
2022-08-07T03:25:41.946Z,99.90
2022-08-07T03:28:38.258Z,99.90
2022-08-07T03:31:42.430Z,99.90
2022-08-07T03:34:34.011Z,99.90
2022-08-07T03:37:32.497Z,99.90
2022-08-07T03:40:22.302Z,99.90
2022-08-07T03:43:14.549Z,99.90
2022-08-07T03:46:04.114Z,99.90
2022-08-07T03:49:02.394Z,99.90
2022-08-07T03:51:57.347Z,99.90
2022-08-07T03:54:54.063Z,99.90
2022-08-07T03:58:35.082Z,99.90
2022-08-07T04:00:58.243Z,99.90
2022-08-07T04:03:53.421Z,99.90
2022-08-07T04:06:44.162Z,99.90
2022-08-07T04:09:45.405Z,99.90
2022-08-07T04:12:39.912Z,99.90
2022-08-07T04:15:28.781Z,99.90
2022-08-07T04:18:59.890Z,99.90
2022-08-07T04:21:25.580Z,99.90
2022-08-07T04:24:30.326Z,99.90
2022-08-07T04:30:35.817Z,99.90
2022-08-07T04:33:26.587Z,99.90
2022-08-07T04:36:15.753Z,99.90
2022-08-07T04:39:11.199Z,99.90
2022-08-07T04:42:03.310Z,99.90
2022-08-07T04:44:54.382Z,99.90
2022-08-07T04:48:10.731Z,99.90
2022-08-07T04:51:06.461Z,99.90
2022-08-07T04:54:06.067Z,99.90
2022-08-07T04:58:09.383Z,99.90
2022-08-07T05:00:30.167Z,99.90
2022-08-07T05:04:00.957Z,99.90
2022-08-07T05:06:43.330Z,99.90
2022-08-07T05:09:45.293Z,99.90
2022-08-07T05:12:46.321Z,99.90
2022-08-07T05:15:48.367Z,99.90
2022-08-07T05:18:47.222Z,99.90
2022-08-07T05:22:00.134Z,99.90
2022-08-07T05:24:47.009Z,99.90
2022-08-07T05:28:23.021Z,99.90
2022-08-07T05:31:14.662Z,99.90
2022-08-07T05:34:13.208Z,99.90
2022-08-07T05:37:05.910Z,99.90
2022-08-07T05:40:13.746Z,99.90
2022-08-07T05:43:04.604Z,99.90
2022-08-07T05:46:01.362Z,99.90
2022-08-07T05:48:58.574Z,99.90
2022-08-07T05:51:49.299Z,99.90
2022-08-07T05:54:53.717Z,99.90
2022-08-07T05:57:47.930Z,99.90
2022-08-07T06:00:40.203Z,99.90
2022-08-07T06:03:53.908Z,99.90
2022-08-07T06:06:38.359Z,99.90
2022-08-07T06:10:03.721Z,99.90
2022-08-07T06:12:44.596Z,99.90
2022-08-07T06:15:39.015Z,99.90
2022-08-07T06:18:31.282Z,99.90
2022-08-07T06:22:14.760Z,99.90
2022-08-07T06:24:46.080Z,99.90
2022-08-07T06:27:43.990Z,99.90
2022-08-07T06:30:46.197Z,99.90
2022-08-07T06:33:41.019Z,99.90
2022-08-07T06:36:35.412Z,99.90
2022-08-07T06:40:16.631Z,99.90
2022-08-07T06:42:37.637Z,99.90
2022-08-07T06:45:28.510Z,99.90
2022-08-07T06:48:24.944Z,99.90
2022-08-07T06:51:24.577Z,99.90
2022-08-07T06:55:32.930Z,99.90
2022-08-07T06:57:43.460Z,99.90
2022-08-07T07:00:42.436Z,99.90
2022-08-07T07:03:47.632Z,99.90
2022-08-07T07:06:57.204Z,99.90
2022-08-07T07:09:46.923Z,99.90
2022-08-07T07:12:41.681Z,99.90
2022-08-07T07:15:51.669Z,99.90
2022-08-07T07:18:48.341Z,99.90
2022-08-07T07:22:11.738Z,99.90
2022-08-07T07:25:02.329Z,99.90
2022-08-07T07:28:02.145Z,99.90
2022-08-07T07:31:03.326Z,99.90
2022-08-07T07:33:57.365Z,99.90
2022-08-07T07:36:52.709Z,99.90
2022-08-07T07:39:52.086Z,99.90
2022-08-07T07:42:47.197Z,99.90
2022-08-07T07:46:39.873Z,99.90
2022-08-07T07:49:00.243Z,99.90
2022-08-07T07:52:03.570Z,99.90
2022-08-07T07:54:57.819Z,99.90
2022-08-07T07:57:52.844Z,99.90
2022-08-07T08:00:45.736Z,99.90
2022-08-07T08:04:10.573Z,99.90
2022-08-07T08:06:54.582Z,99.90
2022-08-07T08:09:52.303Z,99.90
2022-08-07T08:12:59.859Z,99.90
2022-08-07T08:15:58.133Z,99.90
2022-08-07T08:18:54.827Z,99.90
2022-08-07T08:22:08.072Z,99.90
2022-08-07T08:25:41.892Z,99.90
2022-08-07T08:28:37.602Z,99.90
2022-08-07T08:32:17.304Z,99.90
2022-08-07T08:34:48.252Z,99.90
2022-08-07T08:44:48.288Z,99.70
2022-08-07T08:47:52.562Z,99.90
2022-08-07T08:50:49.341Z,99.90
2022-08-07T08:53:53.424Z,99.00
2022-08-07T08:56:48.608Z,98.70
2022-08-07T08:59:48.377Z,99.20
2022-08-07T09:03:13.139Z,98.10
2022-08-07T09:06:12.127Z,97.90
2022-08-07T09:09:09.692Z,98.00
2022-08-07T09:12:30.762Z,97.60
2022-08-07T09:16:23.001Z,96.00
2022-08-07T09:19:51.218Z,96.10
2022-08-07T09:24:31.603Z,94.00
2022-08-07T09:26:20.922Z,93.30
2022-08-07T09:30:03.416Z,94.50
2022-08-07T09:33:05.519Z,94.40
2022-08-07T09:36:37.257Z,92.30
2022-08-07T09:39:54.017Z,91.60
2022-08-07T09:42:54.180Z,90.30
2022-08-07T09:47:24.822Z,89.70
2022-08-07T09:50:02.069Z,89.50
2022-08-07T09:52:42.139Z,85.00
2022-08-07T09:56:04.512Z,85.20
2022-08-07T09:59:14.500Z,86.60
2022-08-07T10:02:20.276Z,81.40
2022-08-07T10:05:59.436Z,77.20
2022-08-07T10:08:59.702Z,82.50
2022-08-07T10:12:40.618Z,80.80
2022-08-07T10:15:57.512Z,83.30
2022-08-07T10:19:11.340Z,80.00
2022-08-07T10:22:24.968Z,80.20
2022-08-07T10:26:31.454Z,81.00
2022-08-07T10:29:43.192Z,76.90
2022-08-07T10:33:06.878Z,77.30
2022-08-07T10:36:17.684Z,76.10
2022-08-07T10:39:41.959Z,77.60
2022-08-07T10:42:59.718Z,78.90
2022-08-07T10:45:58.303Z,74.10
2022-08-07T10:48:58.803Z,73.30
2022-08-07T10:52:01.573Z,72.00
2022-08-07T10:55:26.581Z,70.20
2022-08-07T10:58:40.180Z,73.30
2022-08-07T11:01:51.999Z,72.20
2022-08-07T11:05:10.233Z,71.60
2022-08-07T11:08:09.401Z,69.10
2022-08-07T11:11:07.258Z,73.40
2022-08-07T11:14:57.079Z,70.80
2022-08-07T11:17:23.189Z,71.10
2022-08-07T11:20:32.571Z,71.50
2022-08-07T11:23:30.645Z,71.90
2022-08-07T11:29:42.613Z,68.60
2022-08-07T11:32:40.548Z,64.80
2022-08-07T11:35:33.599Z,65.60
2022-08-07T11:38:31.332Z,63.40
2022-08-07T11:42:00.380Z,61.50
2022-08-07T11:44:51.957Z,62.60
2022-08-07T11:48:03.378Z,59.40
2022-08-07T11:51:10.687Z,60.00
2022-08-07T11:54:37.568Z,60.50
2022-08-07T11:57:59.860Z,60.80
2022-08-07T12:01:05.082Z,62.00
2022-08-07T12:04:32.865Z,61.20
2022-08-07T12:07:27.255Z,59.60
2022-08-07T12:10:23.256Z,59.80
2022-08-07T12:13:37.085Z,59.60
2022-08-07T12:16:31.114Z,57.90
2022-08-07T12:19:35.336Z,58.40
2022-08-07T12:22:56.185Z,57.00
2022-08-07T12:26:21.418Z,58.30
2022-08-07T12:29:08.745Z,58.70
2022-08-07T12:32:04.777Z,55.00
2022-08-07T12:34:56.533Z,52.80
2022-08-07T12:38:10.616Z,52.20
2022-08-07T12:41:03.789Z,53.70
2022-08-07T12:44:04.621Z,54.10
2022-08-07T12:47:09.343Z,54.60
2022-08-07T12:50:39.213Z,52.70
2022-08-07T12:53:21.946Z,55.00
2022-08-07T12:56:20.837Z,55.10
2022-08-07T12:59:20.722Z,53.70
2022-08-07T13:02:32.997Z,53.90
2022-08-07T13:06:02.690Z,53.10
2022-08-07T13:09:01.690Z,52.60
2022-08-07T13:12:13.406Z,52.70
2022-08-07T13:15:23.637Z,53.00
2022-08-07T13:18:31.827Z,52.40
2022-08-07T13:21:37.196Z,52.20
2022-08-07T13:24:43.920Z,54.20
2022-08-07T13:28:10.646Z,52.60
2022-08-07T13:31:06.413Z,53.90
2022-08-07T13:34:33.614Z,51.50
2022-08-07T13:37:30.089Z,50.10
2022-08-07T13:40:35.530Z,49.70
2022-08-07T13:43:34.407Z,52.40
2022-08-07T13:46:28.808Z,52.80
2022-08-07T13:50:35.196Z,52.50
2022-08-07T13:52:38.051Z,52.20
2022-08-07T13:55:30.978Z,51.50
2022-08-07T13:58:50.440Z,50.50
2022-08-07T14:01:59.423Z,49.40
2022-08-07T14:04:56.116Z,49.30
2022-08-07T14:07:59.611Z,49.20
2022-08-07T14:11:14.677Z,48.40
2022-08-07T14:14:09.093Z,49.50
2022-08-07T14:16:59.935Z,49.00
2022-08-07T14:20:42.588Z,46.80
2022-08-07T14:23:31.380Z,48.80
2022-08-07T14:26:34.392Z,48.30
2022-08-07T14:30:05.164Z,45.70
2022-08-07T14:32:45.558Z,47.50
2022-08-07T14:35:43.259Z,48.00
2022-08-07T14:38:37.151Z,48.10
2022-08-07T14:41:33.808Z,47.90
2022-08-07T14:44:39.036Z,46.20
2022-08-07T14:47:32.409Z,46.40
2022-08-07T14:50:24.475Z,46.60
2022-08-07T14:56:29.826Z,44.00
2022-08-07T15:00:06.126Z,45.50
2022-08-07T15:02:34.921Z,45.40
2022-08-07T15:05:27.219Z,44.70
2022-08-07T15:08:32.361Z,45.40
2022-08-07T15:14:34.991Z,43.70
2022-08-07T15:17:55.388Z,43.30
2022-08-07T15:20:55.154Z,42.00
2022-08-07T15:25:12.960Z,42.20
2022-08-07T15:27:05.113Z,43.70
2022-08-07T15:30:16.900Z,43.30
2022-08-07T15:39:27.520Z,42.10
2022-08-07T15:42:54.894Z,42.20
2022-08-07T15:45:55.834Z,39.50
2022-08-07T15:49:03.490Z,41.70
2022-08-07T15:54:53.468Z,41.90
2022-08-07T15:57:52.611Z,41.00
2022-08-07T16:00:51.034Z,40.80
2022-08-07T16:03:47.289Z,40.60
2022-08-07T16:06:38.245Z,40.00
2022-08-07T16:09:42.211Z,38.90
2022-08-07T16:12:41.076Z,40.70
2022-08-07T16:19:04.284Z,39.20
2022-08-07T16:22:17.937Z,38.60
2022-08-07T16:25:54.449Z,39.30
2022-08-07T16:30:09.587Z,39.40
2022-08-07T16:34:02.757Z,38.00
2022-08-07T16:37:02.979Z,38.40
2022-08-07T16:44:55.374Z,36.90
2022-08-07T16:48:15.917Z,38.40
2022-08-07T16:51:54.289Z,39.20
2022-08-07T16:55:47.184Z,38.40
2022-08-07T16:59:14.429Z,36.40
2022-08-07T17:02:09.500Z,37.60
2022-08-07T17:06:19.789Z,37.90
2022-08-07T17:09:09.746Z,36.50
2022-08-07T17:12:35.139Z,37.60
2022-08-07T17:15:44.477Z,37.10
2022-08-07T17:18:46.097Z,37.60
2022-08-07T17:21:50.758Z,37.20
2022-08-07T17:25:05.004Z,36.30
2022-08-07T17:28:01.669Z,36.30
2022-08-07T17:31:15.759Z,37.10
2022-08-07T17:34:34.044Z,37.40
2022-08-07T17:38:09.723Z,37.30
2022-08-07T17:40:50.494Z,37.70
2022-08-07T17:44:02.169Z,36.80
2022-08-07T17:47:00.872Z,37.60
2022-08-07T17:49:55.534Z,37.10
2022-08-07T17:52:52.320Z,37.00
2022-08-07T17:55:54.787Z,37.60
2022-08-07T17:59:00.612Z,37.40
2022-08-07T18:01:59.965Z,36.80
2022-08-07T18:04:53.048Z,36.30
2022-08-07T18:07:44.043Z,37.60
2022-08-07T18:12:07.257Z,38.10
2022-08-07T18:13:54.683Z,37.70
2022-08-07T18:16:57.899Z,37.50
2022-08-07T18:21:07.605Z,38.60
2022-08-07T18:23:42.585Z,38.20
2022-08-07T18:26:26.454Z,39.00
2022-08-07T18:30:08.389Z,39.50
2022-08-07T18:32:52.747Z,39.80
2022-08-07T18:35:55.644Z,40.10
2022-08-07T18:40:08.359Z,40.40
2022-08-07T18:42:22.238Z,41.20
2022-08-07T18:45:42.966Z,41.50
2022-08-07T18:50:19.275Z,41.90
2022-08-07T18:52:34.781Z,41.90
2022-08-07T18:55:42.541Z,42.10
2022-08-07T18:58:40.477Z,42.40
2022-08-07T19:02:34.107Z,42.80
2022-08-07T19:05:10.800Z,42.90
2022-08-07T19:08:11.365Z,43.00
2022-08-07T19:11:35.169Z,43.40
2022-08-07T19:14:36.803Z,44.20
2022-08-07T19:18:01.512Z,44.70
2022-08-07T19:21:08.384Z,45.20
2022-08-07T19:24:06.248Z,45.70
2022-08-07T19:28:30.700Z,46.20
2022-08-07T19:31:00.840Z,46.80
2022-08-07T19:33:34.643Z,47.10
2022-08-07T19:36:27.747Z,47.60
2022-08-07T19:39:40.361Z,48.10
2022-08-07T19:42:39.889Z,48.20
2022-08-07T19:46:06.079Z,48.70
2022-08-07T19:48:53.529Z,49.00
2022-08-07T19:51:50.891Z,49.40
2022-08-07T19:54:56.462Z,49.60
2022-08-07T19:58:02.037Z,50.00
2022-08-07T20:00:55.535Z,50.40
2022-08-07T20:03:44.390Z,50.50
2022-08-07T20:06:32.528Z,50.60
2022-08-07T20:10:35.817Z,51.10
2022-08-07T20:12:35.722Z,51.30
2022-08-07T20:15:33.097Z,51.80
2022-08-07T20:18:33.766Z,51.90
2022-08-07T20:21:24.991Z,52.50
2022-08-07T20:24:20.753Z,52.80
2022-08-07T20:27:11.715Z,53.20
2022-08-07T20:30:07.641Z,53.70
2022-08-07T20:33:01.071Z,53.90
2022-08-07T20:36:01.396Z,54.20
2022-08-07T20:39:00.703Z,54.60
2022-08-07T20:41:55.717Z,54.70
2022-08-07T20:44:49.595Z,55.10
2022-08-07T20:47:56.530Z,55.50
2022-08-07T20:50:47.097Z,56.10
2022-08-07T20:54:04.653Z,56.00
2022-08-07T20:56:51.663Z,56.40
2022-08-07T21:00:06.500Z,57.00
2022-08-07T21:03:01.910Z,57.10
2022-08-07T21:05:56.149Z,57.80
2022-08-07T21:08:48.128Z,58.50
2022-08-07T21:11:49.977Z,58.50
2022-08-07T21:14:48.360Z,58.60
2022-08-07T21:18:02.842Z,59.40
2022-08-07T21:20:59.381Z,59.80
2022-08-07T21:23:56.179Z,60.50
2022-08-07T21:26:57.590Z,61.80
2022-08-07T21:29:52.991Z,61.70
2022-08-07T21:32:51.989Z,61.50
2022-08-07T21:36:04.109Z,62.20
2022-08-07T21:39:46.854Z,62.40
2022-08-07T21:42:42.637Z,63.30
2022-08-07T21:46:07.868Z,62.90
2022-08-07T21:48:55.921Z,63.90
2022-08-07T21:52:11.364Z,64.70
2022-08-07T21:55:07.095Z,65.60
2022-08-07T21:58:07.556Z,65.50
2022-08-07T22:01:02.021Z,66.40
2022-08-07T22:04:00.645Z,66.70
2022-08-07T22:07:06.530Z,67.40
2022-08-07T22:09:58.743Z,68.70
2022-08-07T22:12:55.415Z,67.80
2022-08-07T22:16:39.927Z,68.70
2022-08-07T22:19:18.101Z,69.00
2022-08-07T22:22:20.849Z,69.20
2022-08-07T22:25:17.134Z,69.50
2022-08-07T22:28:31.073Z,70.30
2022-08-07T22:31:58.916Z,71.90
2022-08-07T22:34:49.732Z,71.50
2022-08-07T22:38:03.553Z,72.30
2022-08-07T22:40:59.847Z,72.60
2022-08-07T22:43:58.919Z,73.20
2022-08-07T22:47:23.398Z,73.70
2022-08-07T22:50:37.042Z,76.10
2022-08-07T22:54:06.976Z,76.80
2022-08-07T22:56:59.174Z,77.30
2022-08-07T22:59:55.414Z,78.00
2022-08-07T23:03:09.342Z,78.40
2022-08-07T23:06:16.828Z,79.80
2022-08-07T23:10:05.147Z,80.90
2022-08-07T23:12:54.608Z,82.00
2022-08-07T23:16:06.591Z,82.70
2022-08-07T23:19:48.053Z,83.50
2022-08-07T23:22:52.254Z,83.50
2022-08-07T23:26:01.039Z,84.70
2022-08-07T23:29:42.814Z,85.60
2022-08-07T23:34:23.956Z,85.80
2022-08-07T23:35:47.985Z,86.90
2022-08-07T23:39:00.207Z,87.00
2022-08-07T23:42:06.222Z,88.70
2022-08-07T23:45:07.827Z,88.80
2022-08-07T23:48:44.479Z,89.30
2022-08-07T23:52:59.825Z,90.10
2022-08-07T23:54:56.965Z,89.80
2022-08-07T23:57:54.248Z,90.20
